Flight Track Log - Related Links

Times and Time Zones

All times are in EDT time to prevent confusion due to time zone crossing. See the FIN666 flight status page for this flight to view local times or setup timezone preferences in your user account.

Time Position Orientation Groundspeed Altitude Reporting Facility
EDT Latitude Longitude Course Direction KTS MPH feet Rate Location/Type
Sun 08:25:00 AM 55.8520 13.1400 49° Northeast  Level Estimated
Sun 08:26:00 AM 55.9296 13.3027 50° Northeast  Level Estimated
Sun 08:27:00 AM 56.0070 13.4660 50° Northeast  Level Estimated
Sun 08:28:00 AM 56.0842 13.6299 50° Northeast  Level Estimated
Sun 08:29:00 AM 56.1612 13.7945 50° Northeast  Level Estimated
Sun 08:30:00 AM 56.2403 13.9649 50° Northeast  Level Estimated
Sun 08:31:00 AM 56.3192 14.1360 50° Northeast  Level Estimated
Sun 08:32:00 AM 56.3978 14.3078 50° Northeast  Level Estimated
Sun 08:33:00 AM 56.4762 14.4803 51° Northeast  Level Estimated
Sun 08:34:00 AM 56.5543 14.6535 51° Northeast  Level Estimated
Sun 08:35:00 AM 56.6323 14.8274 51° Northeast  Level Estimated
Sun 08:36:00 AM 56.7099 15.0020 51° Northeast  Level Estimated
Sun 08:37:00 AM 56.7873 15.1774 51° Northeast  Level Estimated
Sun 08:38:00 AM 56.8645 15.3534 51° Northeast  Level Estimated
Sun 08:39:00 AM 56.9414 15.5302 51° Northeast  Level Estimated
Sun 08:40:00 AM 57.0181 15.7078 52° Northeast  Level Estimated
Sun 08:41:00 AM 57.0946 15.8861 52° Northeast  Level Estimated
Sun 08:42:00 AM 57.1707 16.0651 52° Northeast  Level Estimated
Sun 08:43:00 AM 57.2466 16.2448 52° Northeast  Level Estimated
Sun 08:44:00 AM 57.3223 16.4253 52° Northeast  Level Estimated
Sun 08:45:00 AM 57.3977 16.6065 52° Northeast  Level Estimated
Sun 08:46:00 AM 57.4728 16.7885 52° Northeast  Level Estimated
Sun 08:47:00 AM 57.5477 16.9712 53° Northeast  Level Estimated
Sun 08:48:00 AM 57.6223 17.1547 53° Northeast  Level Estimated
Sun 08:49:00 AM 57.6967 17.3389 53° Northeast  Level Estimated
Sun 08:50:00 AM 57.7707 17.5239 53° Northeast  Level Estimated
Sun 08:51:00 AM 57.8445 17.7096 53° Northeast  Level Estimated
Sun 08:52:00 AM 57.9180 17.8961 53° Northeast  Level Estimated
Sun 08:53:00 AM 57.9913 18.0834 54° Northeast  Level Estimated
Sun 08:54:00 AM 58.0643 18.2714 54° Northeast  Level Estimated
Sun 08:55:00 AM 58.1370 18.4602 54° Northeast  Level Estimated
Sun 08:56:00 AM 58.2094 18.6498 54° Northeast  Level Estimated
Sun 08:57:00 AM 58.2816 18.8401 54° Northeast  Level Estimated
Sun 08:58:00 AM 58.3534 19.0312 54° Northeast  Level Estimated
Sun 08:59:00 AM 58.4250 19.2232 54° Northeast  Level Estimated
Sun 09:00:00 AM 58.4963 19.4158 55° Northeast  Level Estimated
Sun 09:01:00 AM 58.5672 19.6093 55° Northeast  Level Estimated
Sun 09:02:00 AM 58.6380 19.8035 55° Northeast  Level Estimated
Sun 09:03:00 AM 58.7084 19.9986 55° Northeast  Level Estimated
Sun 09:04:00 AM 58.7785 20.1944 55° Northeast  Level Estimated
Sun 09:05:00 AM 58.8483 20.3910 55° Northeast  Level Estimated
Sun 09:06:00 AM 58.9178 20.5884 56° Northeast  Level Estimated
Sun 09:07:00 AM 58.9870 20.7866 56° Northeast  Level Estimated
Sun 09:08:00 AM 59.0559 20.9856 56° Northeast  Level Estimated
Sun 09:09:00 AM 59.1245 21.1854 56° Northeast  Level Estimated
Sun 09:10:00 AM 59.1928 21.3860 56° Northeast  Level Estimated
Sun 09:11:00 AM 59.2608 21.5874 56° Northeast  Level Estimated
Sun 09:12:00 AM 59.3284 21.7896 57° Northeast  Level Estimated
Sun 09:13:00 AM 59.3958 21.9925 57° Northeast  Level Estimated
Sun 09:14:00 AM 59.4628 22.1964 57° Northeast  Level Estimated
Sun 09:15:00 AM 59.5296 22.4010 57° Northeast  Level Estimated
Sun 09:16:00 AM 59.5960 22.6064 57° Northeast  Level Estimated
Sun 09:17:00 AM 59.6620 22.8127 58° Northeast  Level Estimated
Sun 09:18:00 AM 59.7278 23.0197 58° Northeast  Level Estimated
Sun 09:19:00 AM 59.7932 23.2276 58° Northeast  Level Estimated
Sun 09:20:00 AM 59.8583 23.4362 58° Northeast  Level Estimated
Sun 09:21:00 AM 59.9231 23.6457 58° Northeast  Level Estimated
Sun 09:22:00 AM 59.9875 23.8561 58° Northeast  Level Estimated
Sun 09:23:00 AM 60.0516 24.0672 59° Northeast  Level Estimated
Sun 09:24:00 AM 60.1154 24.2791 59° Northeast  Level Estimated
Sun 09:25:00 AM 60.1788 24.4919 59° Northeast  Level Estimated
Sun 09:26:00 AM 60.2419 24.7055 59° Northeast  Level Estimated
Sun 09:27:00 AM 60.3046 24.9199 59° Northeast  Level Estimated
Sun 09:28:00 AM 60.3172 24.9633 60° Northeast  Level Estimated
Sun 09:29:00 AM 60.3172 24.9633 37° Northeast  Level Estimated
Sun 09:30:00 AM 60.3172 24.9633 37° Northeast  Level Estimated
Sun 09:31:00 AM 60.3172 24.9633 37° Northeast  Level Estimated
Sun 09:32:00 AM 60.3172 24.9633 37° Northeast  Level Estimated
Sun 09:33:00 AM 60.3172 24.9633 37° Northeast  Level Estimated
Sun 09:34:00 AM 60.3172 24.9633 37° Northeast  Level Estimated
Sun 09:35:00 AM 60.3172 24.9633 37° Northeast  Level Estimated
Sun 09:36:00 AM 60.3172 24.9633 37° Northeast  Level Estimated
Sun 09:37:00 AM 60.3172 24.9633 37° Northeast  Level Estimated
Sun 09:38:00 AM 60.3172 24.9633 37° Northeast  Level Estimated
Sun 09:39:00 AM 60.3172 24.9633 37° Northeast  Level Estimated
Sun 09:40:00 AM 60.3172 24.9633 37° Northeast  Level Estimated
Sun 09:41:00 AM 60.3172 24.9633 37° Northeast  Level Estimated
Sun 09:42:00 AM 60.3172 24.9633 37° Northeast  Level Estimated

Login

Don't have an account? Register now (free) for customized features, flight alerts, and more!